createdAt,value
2023-03-26T00:01:17.503Z,8.77
2023-03-26T00:03:47.193Z,13.80
2023-03-26T00:06:17.030Z,14.82
2023-03-26T00:08:45.789Z,13.73
2023-03-26T00:11:14.197Z,11.93
2023-03-26T00:13:43.604Z,21.45
2023-03-26T00:16:13.621Z,11.32
2023-03-26T00:18:42.521Z,11.27
2023-03-26T00:21:15.157Z,10.32
2023-03-26T00:23:42.966Z,9.13
2023-03-26T00:26:10.747Z,13.25
2023-03-26T00:28:40.352Z,13.75
2023-03-26T00:31:11.218Z,13.38
2023-03-26T00:33:38.581Z,12.82
2023-03-26T00:36:09.845Z,10.30
2023-03-26T00:38:38.996Z,13.53
2023-03-26T00:41:08.128Z,9.13
2023-03-26T00:43:35.845Z,9.38
2023-03-26T00:46:02.500Z,12.32
2023-03-26T00:48:44.047Z,7.18
2023-03-26T00:53:39.001Z,9.52
2023-03-26T00:56:06.962Z,9.73
2023-03-26T00:58:34.079Z,10.43
2023-03-26T01:01:07.106Z,18.83
2023-03-26T01:03:36.203Z,10.60
2023-03-26T01:06:27.841Z,12.68
2023-03-26T01:09:00.411Z,15.52
2023-03-26T01:11:30.631Z,12.07
2023-03-26T01:14:11.355Z,12.85
2023-03-26T01:16:51.879Z,8.52
2023-03-26T01:19:34.018Z,12.20
2023-03-26T01:22:00.677Z,9.55
2023-03-26T01:24:27.130Z,9.45
2023-03-26T01:27:02.631Z,9.88
2023-03-26T01:29:55.191Z,16.17
2023-03-26T01:35:19.862Z,7.68
2023-03-26T01:38:10.913Z,10.38
2023-03-26T01:40:46.733Z,11.00
2023-03-26T01:43:47.419Z,9.95
2023-03-26T01:46:16.183Z,10.13
2023-03-26T01:48:44.886Z,16.90
2023-03-26T01:51:13.224Z,9.75
2023-03-26T01:53:46.998Z,9.00
2023-03-26T01:56:29.455Z,16.33
2023-03-26T01:59:16.728Z,8.20
2023-03-26T02:01:59.913Z,16.67
2023-03-26T02:04:37.617Z,9.32
2023-03-26T02:07:25.356Z,13.07
2023-03-26T02:09:56.118Z,11.27
2023-03-26T02:12:23.761Z,12.48
2023-03-26T02:14:50.534Z,13.25
2023-03-26T02:17:19.119Z,14.50
2023-03-26T02:19:45.647Z,12.98
2023-03-26T02:22:15.620Z,12.63
2023-03-26T02:24:43.051Z,11.35
2023-03-26T02:27:12.301Z,13.68
2023-03-26T02:29:39.904Z,11.82
2023-03-26T02:32:08.071Z,14.25
2023-03-26T02:34:34.548Z,12.68
2023-03-26T02:37:01.077Z,13.25
2023-03-26T02:39:30.562Z,12.50
2023-03-26T02:41:56.994Z,11.88
2023-03-26T02:44:23.405Z,9.50
2023-03-26T02:46:49.849Z,13.65
2023-03-26T02:49:16.360Z,9.88
2023-03-26T02:51:42.754Z,13.13
2023-03-26T02:54:09.789Z,18.98
2023-03-26T02:56:36.580Z,19.95
2023-03-26T02:59:03.222Z,11.20
2023-03-26T03:01:30.898Z,18.80
2023-03-26T03:03:57.630Z,14.25
2023-03-26T03:06:26.424Z,17.02
2023-03-26T03:08:53.925Z,12.55
2023-03-26T03:11:22.228Z,15.57
2023-03-26T03:13:48.788Z,12.52
2023-03-26T03:16:15.494Z,19.48
2023-03-26T03:18:41.882Z,14.48
2023-03-26T03:21:08.628Z,16.08
2023-03-26T03:23:35.424Z,17.60
2023-03-26T03:26:02.632Z,14.05
2023-03-26T03:28:29.301Z,22.00
2023-03-26T03:30:57.524Z,15.35
2023-03-26T03:33:24.262Z,16.02
2023-03-26T03:35:50.901Z,13.07
2023-03-26T03:38:19.103Z,16.52
2023-03-26T03:40:46.183Z,16.95
2023-03-26T03:43:12.577Z,13.02
2023-03-26T03:45:39.074Z,12.65
2023-03-26T03:48:05.887Z,14.93
2023-03-26T03:50:35.061Z,14.80
2023-03-26T03:53:02.942Z,16.30
2023-03-26T03:55:29.983Z,14.45
2023-03-26T03:57:58.370Z,14.88
2023-03-26T04:00:24.845Z,18.85
2023-03-26T04:02:54.267Z,17.02
2023-03-26T04:05:21.240Z,11.73
2023-03-26T04:07:47.716Z,14.38
2023-03-26T04:10:16.039Z,22.05
2023-03-26T04:12:42.466Z,25.85
2023-03-26T04:15:09.098Z,13.85
2023-03-26T04:17:42.331Z,15.52
2023-03-26T04:20:19.159Z,22.65
2023-03-26T04:22:45.606Z,18.50
2023-03-26T04:25:13.156Z,14.13
2023-03-26T04:27:41.712Z,16.00
2023-03-26T04:30:12.503Z,16.15
2023-03-26T04:32:40.394Z,18.00
2023-03-26T04:35:07.145Z,15.13
2023-03-26T04:37:39.530Z,20.77
2023-03-26T04:40:09.354Z,16.38
2023-03-26T04:42:37.649Z,15.50
2023-03-26T04:45:14.711Z,15.73
2023-03-26T04:47:41.291Z,21.90
2023-03-26T04:50:09.967Z,19.35
2023-03-26T04:52:37.359Z,21.27
2023-03-26T04:55:08.262Z,19.70
2023-03-26T04:57:38.804Z,20.98
2023-03-26T05:00:15.309Z,22.85
2023-03-26T05:02:43.133Z,15.52
2023-03-26T05:05:13.097Z,16.65
2023-03-26T05:07:39.508Z,24.77
2023-03-26T05:10:06.737Z,33.00
2023-03-26T05:12:33.152Z,14.13
2023-03-26T05:14:59.599Z,20.35
2023-03-26T05:17:26.628Z,23.40
2023-03-26T05:19:53.083Z,26.58
2023-03-26T05:22:19.505Z,25.95
2023-03-26T05:24:46.180Z,24.50
2023-03-26T05:27:25.063Z,24.65
2023-03-26T05:29:51.801Z,25.80
2023-03-26T05:32:18.175Z,25.20
2023-03-26T05:34:44.542Z,22.65
2023-03-26T05:37:10.917Z,22.27
2023-03-26T05:39:37.358Z,26.17
2023-03-26T05:42:03.995Z,30.38
2023-03-26T05:44:30.419Z,26.08
2023-03-26T05:46:56.878Z,28.40
2023-03-26T05:49:23.418Z,26.40
2023-03-26T05:51:49.908Z,28.88
2023-03-26T05:54:16.322Z,30.80
2023-03-26T05:56:42.786Z,33.33
2023-03-26T05:59:09.210Z,31.23
2023-03-26T06:01:35.632Z,27.50
2023-03-26T06:04:02.136Z,25.48
2023-03-26T06:06:28.597Z,23.85
2023-03-26T06:09:02.345Z,31.38
2023-03-26T06:11:30.784Z,28.80
2023-03-26T06:13:57.854Z,30.08
2023-03-26T06:16:26.257Z,20.65
2023-03-26T06:18:57.280Z,25.25
2023-03-26T06:21:28.014Z,26.77
2023-03-26T06:23:55.430Z,29.67
2023-03-26T06:26:22.300Z,27.27
2023-03-26T06:28:48.838Z,37.70
2023-03-26T06:31:17.217Z,25.02
2023-03-26T06:33:43.740Z,31.13
2023-03-26T06:36:10.607Z,26.08
2023-03-26T06:38:37.024Z,37.35
2023-03-26T06:41:04.804Z,28.20
2023-03-26T06:43:33.667Z,25.63
2023-03-26T06:46:01.282Z,25.95
2023-03-26T06:48:28.072Z,28.08
2023-03-26T06:50:54.846Z,25.42
2023-03-26T06:53:21.560Z,26.50
2023-03-26T06:55:47.989Z,34.13
2023-03-26T06:58:14.537Z,39.30
2023-03-26T07:00:42.190Z,37.55
2023-03-26T07:03:08.787Z,32.55
2023-03-26T07:05:35.368Z,40.83
2023-03-26T07:08:03.044Z,49.05
2023-03-26T07:10:29.476Z,32.58
2023-03-26T07:12:56.131Z,43.25
2023-03-26T07:15:22.590Z,54.28
2023-03-26T07:17:49.115Z,48.75
2023-03-26T07:20:15.774Z,41.65
2023-03-26T07:22:42.564Z,42.47
2023-03-26T07:25:09.930Z,38.60
2023-03-26T07:27:59.791Z,41.25
2023-03-26T07:30:38.399Z,35.78
2023-03-26T07:33:15.375Z,37.22
2023-03-26T07:35:48.572Z,38.53
2023-03-26T07:38:30.126Z,25.95
2023-03-26T07:41:13.904Z,25.38
2023-03-26T07:44:08.939Z,25.13
2023-03-26T07:46:37.040Z,18.33
2023-03-26T07:49:04.533Z,20.10
2023-03-26T07:51:31.936Z,19.30
2023-03-26T07:54:02.531Z,17.00
2023-03-26T07:56:38.031Z,18.02
2023-03-26T07:59:16.768Z,20.40
2023-03-26T08:02:19.056Z,23.83
2023-03-26T08:05:18.911Z,29.15
2023-03-26T08:08:13.775Z,15.55
2023-03-26T08:10:52.654Z,22.58
2023-03-26T08:13:30.488Z,17.48
2023-03-26T08:16:05.473Z,18.70
2023-03-26T08:18:50.468Z,11.48
2023-03-26T08:21:28.982Z,12.02
2023-03-26T08:24:09.613Z,12.57
2023-03-26T08:26:47.276Z,15.60
2023-03-26T08:29:42.108Z,12.18
2023-03-26T08:32:16.216Z,18.15
2023-03-26T08:34:42.730Z,12.20
2023-03-26T08:37:09.840Z,11.23
2023-03-26T08:39:38.726Z,13.38
2023-03-26T08:42:29.491Z,10.95
2023-03-26T08:45:20.875Z,12.15
2023-03-26T08:48:32.629Z,13.98
2023-03-26T08:51:15.183Z,15.57
2023-03-26T08:53:55.499Z,14.68
2023-03-26T08:56:56.731Z,14.75
2023-03-26T08:59:40.761Z,14.32
2023-03-26T09:02:23.885Z,10.70
2023-03-26T09:05:08.810Z,12.40
2023-03-26T09:08:04.034Z,17.15
2023-03-26T09:10:49.997Z,12.18
2023-03-26T09:13:34.781Z,10.23
2023-03-26T09:16:39.009Z,12.60
2023-03-26T09:19:11.298Z,12.82
2023-03-26T09:24:44.701Z,10.77
2023-03-26T09:27:32.584Z,12.52
2023-03-26T09:30:37.267Z,12.18
2023-03-26T09:33:11.851Z,11.57
2023-03-26T09:35:44.050Z,10.20
2023-03-26T09:41:25.361Z,14.90
2023-03-26T09:44:16.577Z,16.15
2023-03-26T09:47:19.680Z,9.43
2023-03-26T09:49:52.305Z,19.95
2023-03-26T09:52:21.764Z,16.58
2023-03-26T09:55:20.180Z,11.52
2023-03-26T09:58:04.861Z,20.50
2023-03-26T10:00:41.795Z,20.35
2023-03-26T10:03:10.982Z,13.40
2023-03-26T10:05:59.041Z,10.85
2023-03-26T10:08:34.725Z,12.45
2023-03-26T10:11:24.041Z,24.40
2023-03-26T10:14:24.555Z,12.77
2023-03-26T10:17:03.048Z,18.73
2023-03-26T10:19:41.756Z,15.57
2023-03-26T10:22:35.958Z,11.00
2023-03-26T10:25:32.724Z,14.82
2023-03-26T10:28:17.944Z,10.40
2023-03-26T10:31:06.164Z,18.45
2023-03-26T10:34:01.201Z,12.98
2023-03-26T10:36:36.715Z,11.13
2023-03-26T10:39:36.749Z,16.08
2023-03-26T10:42:40.812Z,12.32
2023-03-26T10:45:11.068Z,15.05
2023-03-26T10:47:58.956Z,23.02
2023-03-26T10:50:36.849Z,16.00
2023-03-26T10:53:11.554Z,12.90
2023-03-26T10:55:42.121Z,11.05
2023-03-26T10:58:49.768Z,7.78
2023-03-26T11:01:19.471Z,13.27
2023-03-26T11:03:52.006Z,12.88
2023-03-26T11:06:44.399Z,13.50
2023-03-26T11:09:29.637Z,12.40
2023-03-26T11:12:26.738Z,13.05
2023-03-26T11:15:18.938Z,13.63
2023-03-26T11:17:45.807Z,10.35
2023-03-26T11:20:12.322Z,11.63
2023-03-26T11:22:53.800Z,11.25
2023-03-26T11:25:46.698Z,16.25
2023-03-26T11:28:28.434Z,18.48
2023-03-26T11:31:04.264Z,18.40
2023-03-26T11:33:45.545Z,22.50
2023-03-26T11:38:46.694Z,11.23
2023-03-26T11:41:23.044Z,12.57
2023-03-26T11:43:57.867Z,8.70
2023-03-26T11:46:26.493Z,15.85
2023-03-26T11:48:59.142Z,12.02
2023-03-26T11:51:34.168Z,14.88
2023-03-26T11:54:01.454Z,11.27
2023-03-26T11:56:41.112Z,9.63
2023-03-26T11:59:30.075Z,11.25
2023-03-26T12:01:59.170Z,17.95
2023-03-26T12:04:36.419Z,12.90
2023-03-26T12:07:25.161Z,12.80
2023-03-26T12:10:17.674Z,9.27
2023-03-26T12:12:47.502Z,15.95
2023-03-26T12:15:19.094Z,16.00
2023-03-26T12:17:48.330Z,11.38
2023-03-26T12:20:24.847Z,10.77
2023-03-26T12:22:59.066Z,15.73
2023-03-26T12:25:28.019Z,11.77
2023-03-26T12:28:04.726Z,8.77
2023-03-26T12:30:35.118Z,12.88
2023-03-26T12:33:05.589Z,9.82
2023-03-26T12:35:34.743Z,9.23
2023-03-26T12:38:17.055Z,12.32
2023-03-26T12:44:54.550Z,8.55
2023-03-26T12:47:55.465Z,7.32
2023-03-26T12:49:11.830Z,11.15
2023-03-26T12:52:11.823Z,14.45
2023-03-26T12:55:03.242Z,12.45
2023-03-26T12:57:54.279Z,16.88
2023-03-26T13:00:42.516Z,14.60
2023-03-26T13:03:08.949Z,14.40
2023-03-26T13:06:09.362Z,9.88
2023-03-26T13:08:54.467Z,11.35
2023-03-26T13:11:39.336Z,9.88
2023-03-26T13:14:39.117Z,8.10
2023-03-26T13:17:30.273Z,7.63
2023-03-26T13:20:33.464Z,9.95
2023-03-26T13:23:11.113Z,13.77
2023-03-26T13:25:51.230Z,10.02
2023-03-26T13:28:28.845Z,6.07
2023-03-26T13:31:29.012Z,10.50
2023-03-26T13:34:13.934Z,16.98
2023-03-26T13:36:43.453Z,6.95
2023-03-26T13:39:15.433Z,6.80
2023-03-26T13:41:53.851Z,11.38
2023-03-26T13:45:16.821Z,6.97
2023-03-26T13:50:23.283Z,7.03
2023-03-26T13:52:53.212Z,8.27
2023-03-26T13:55:47.850Z,8.43
2023-03-26T13:58:41.683Z,9.18
2023-03-26T14:01:16.738Z,14.85
2023-03-26T14:04:00.793Z,9.70
2023-03-26T14:06:47.028Z,9.48
2023-03-26T14:09:32.071Z,10.05
2023-03-26T14:12:37.121Z,5.97
2023-03-26T14:15:14.045Z,5.80
2023-03-26T14:18:06.049Z,6.45
2023-03-26T14:20:59.840Z,6.90
2023-03-26T14:23:48.797Z,5.40
2023-03-26T14:26:49.111Z,7.22
2023-03-26T14:29:23.596Z,11.90
2023-03-26T14:32:24.799Z,6.03
2023-03-26T14:35:20.349Z,7.30
2023-03-26T14:38:24.415Z,8.10
2023-03-26T14:41:12.914Z,10.20
2023-03-26T14:43:57.846Z,10.27
2023-03-26T14:46:38.203Z,6.50
2023-03-26T14:49:09.436Z,9.38
2023-03-26T14:51:53.190Z,7.53
2023-03-26T14:54:24.460Z,4.72
2023-03-26T14:57:17.808Z,7.32
2023-03-26T14:59:59.283Z,5.95
2023-03-26T15:03:11.078Z,6.38
2023-03-26T15:06:06.454Z,10.83
2023-03-26T15:08:58.644Z,7.45
2023-03-26T15:11:43.325Z,10.80
2023-03-26T15:14:39.864Z,9.95
2023-03-26T15:17:37.320Z,7.45
2023-03-26T15:20:19.202Z,9.40
2023-03-26T15:23:03.919Z,10.70
2023-03-26T15:26:00.741Z,5.18
2023-03-26T15:28:46.523Z,8.20
2023-03-26T15:31:37.427Z,9.25
2023-03-26T15:34:20.200Z,10.00
2023-03-26T15:37:10.695Z,6.82
2023-03-26T15:40:09.723Z,12.93
2023-03-26T15:42:59.233Z,10.82
2023-03-26T15:45:41.272Z,7.40
2023-03-26T15:48:11.605Z,11.20
2023-03-26T15:51:03.386Z,12.30
2023-03-26T15:53:53.310Z,7.47
2023-03-26T15:56:40.315Z,8.52
2023-03-26T15:59:34.716Z,8.90
2023-03-26T16:02:07.553Z,7.13
2023-03-26T16:04:52.431Z,11.48
2023-03-26T16:07:38.960Z,9.02
2023-03-26T16:10:23.225Z,7.50
2023-03-26T16:13:14.780Z,7.50
2023-03-26T16:15:42.686Z,9.37
2023-03-26T16:18:15.561Z,8.57
2023-03-26T16:20:50.807Z,8.88
2023-03-26T16:23:47.708Z,15.65
2023-03-26T16:26:23.426Z,10.77
2023-03-26T16:28:53.507Z,44.42
2023-03-26T16:31:37.010Z,36.63
2023-03-26T16:34:07.444Z,6.88
2023-03-26T16:36:35.832Z,5.40
2023-03-26T16:39:05.466Z,9.75
2023-03-26T16:41:34.642Z,5.40
2023-03-26T16:44:28.559Z,8.90
2023-03-26T16:47:00.900Z,7.07
2023-03-26T16:49:45.961Z,5.57
2023-03-26T16:52:42.733Z,5.20
2023-03-26T16:55:21.978Z,6.32
2023-03-26T16:58:10.256Z,6.60
2023-03-26T17:00:52.412Z,7.63
2023-03-26T17:03:27.021Z,9.27
2023-03-26T17:06:02.045Z,9.57
2023-03-26T17:08:46.648Z,8.48
2023-03-26T17:11:31.129Z,8.25
2023-03-26T17:14:26.856Z,7.97
2023-03-26T17:17:40.290Z,6.78
2023-03-26T17:20:35.782Z,9.20
2023-03-26T17:23:08.160Z,9.23
2023-03-26T17:26:02.733Z,9.73
2023-03-26T17:28:53.187Z,13.55
2023-03-26T17:31:41.125Z,9.93
2023-03-26T17:34:38.740Z,6.85
2023-03-26T17:37:30.665Z,9.13
2023-03-26T17:40:10.863Z,14.20
2023-03-26T17:42:37.739Z,5.72
2023-03-26T17:45:24.968Z,8.32
2023-03-26T17:47:57.338Z,4.03
2023-03-26T17:50:44.040Z,4.75
2023-03-26T17:53:17.669Z,6.82
2023-03-26T17:55:45.764Z,9.85
2023-03-26T17:58:27.463Z,5.68
2023-03-26T18:01:19.996Z,5.25
2023-03-26T18:06:37.606Z,7.40
2023-03-26T18:09:33.344Z,5.47
2023-03-26T18:12:24.339Z,6.40
2023-03-26T18:15:12.080Z,4.40
2023-03-26T18:17:41.449Z,7.47
2023-03-26T18:20:20.115Z,6.55
2023-03-26T18:22:46.986Z,8.27
2023-03-26T18:25:23.643Z,6.10
2023-03-26T18:27:50.161Z,7.50
2023-03-26T18:30:22.700Z,7.20
2023-03-26T18:32:54.891Z,5.85
2023-03-26T18:37:53.272Z,5.68
2023-03-26T18:40:22.254Z,7.95
2023-03-26T18:42:52.312Z,4.63
2023-03-26T18:45:51.476Z,12.55
2023-03-26T18:48:21.225Z,6.53
2023-03-26T18:50:52.807Z,6.90
2023-03-26T18:53:24.651Z,5.93
2023-03-26T18:55:52.256Z,10.45
2023-03-26T18:58:28.114Z,4.47
2023-03-26T19:00:58.590Z,5.85
2023-03-26T19:03:27.914Z,6.07
2023-03-26T19:05:56.455Z,6.40
2023-03-26T19:08:24.567Z,5.60
2023-03-26T19:10:53.064Z,7.40
2023-03-26T19:13:23.176Z,5.65
2023-03-26T19:15:52.077Z,7.85
2023-03-26T19:18:28.606Z,2.83
2023-03-26T19:21:01.243Z,11.43
2023-03-26T19:23:38.917Z,4.13
2023-03-26T19:26:07.932Z,5.70
2023-03-26T19:28:37.780Z,12.68
2023-03-26T19:31:07.992Z,10.52
2023-03-26T19:33:39.848Z,7.30
2023-03-26T19:36:23.076Z,6.95
2023-03-26T19:38:54.920Z,6.35
2023-03-26T19:41:26.942Z,6.20
2023-03-26T19:46:23.527Z,5.55
2023-03-26T19:48:54.731Z,4.53
2023-03-26T19:51:25.567Z,7.63
2023-03-26T19:53:59.057Z,6.93
2023-03-26T19:56:25.587Z,6.28
2023-03-26T19:58:55.206Z,13.02
2023-03-26T20:01:27.223Z,4.53
2023-03-26T20:04:02.338Z,12.07
2023-03-26T20:06:41.457Z,3.83
2023-03-26T20:09:11.492Z,6.30
2023-03-26T20:11:39.529Z,8.45
2023-03-26T20:14:21.448Z,4.28
2023-03-26T20:16:47.903Z,5.95
2023-03-26T20:19:15.001Z,8.65
2023-03-26T20:21:48.849Z,5.20
2023-03-26T20:24:17.520Z,9.52
2023-03-26T20:26:45.813Z,7.65
2023-03-26T20:29:13.748Z,6.50
2023-03-26T20:31:41.650Z,5.85
2023-03-26T20:34:20.649Z,5.65
2023-03-26T20:36:48.083Z,3.63
2023-03-26T20:39:14.683Z,6.05
2023-03-26T20:41:46.012Z,8.55
2023-03-26T20:44:15.673Z,5.25
2023-03-26T20:46:43.959Z,7.63
2023-03-26T20:49:11.333Z,8.40
2023-03-26T20:51:38.943Z,7.70
2023-03-26T20:54:09.090Z,6.05
2023-03-26T20:56:37.599Z,5.63
2023-03-26T20:59:11.018Z,4.60
2023-03-26T21:01:38.419Z,9.15
2023-03-26T21:04:07.922Z,5.63
2023-03-26T21:06:34.486Z,9.55
2023-03-26T21:09:01.130Z,6.45
2023-03-26T21:11:51.877Z,7.40
2023-03-26T21:14:41.036Z,6.22
2023-03-26T21:17:19.255Z,8.50
2023-03-26T21:19:46.137Z,5.32
2023-03-26T21:22:27.624Z,5.22
2023-03-26T21:25:25.646Z,7.03
2023-03-26T21:28:05.889Z,3.40
2023-03-26T21:30:34.195Z,7.68
2023-03-26T21:33:01.460Z,6.35
2023-03-26T21:35:28.346Z,6.85
2023-03-26T21:37:57.537Z,6.05
2023-03-26T21:40:24.337Z,5.07
2023-03-26T21:42:53.399Z,6.03
2023-03-26T21:45:21.680Z,5.35
2023-03-26T21:47:48.803Z,8.05
2023-03-26T21:50:19.371Z,9.70
2023-03-26T21:52:50.865Z,9.45
2023-03-26T21:55:18.336Z,7.88
2023-03-26T21:58:00.987Z,9.07
2023-03-26T22:00:43.616Z,4.75
2023-03-26T22:03:33.017Z,5.60
2023-03-26T22:06:11.368Z,7.82
2023-03-26T22:08:40.745Z,7.20
2023-03-26T22:11:10.471Z,9.13
2023-03-26T22:13:40.733Z,5.63
2023-03-26T22:16:09.733Z,5.35
2023-03-26T22:18:38.602Z,6.43
2023-03-26T22:21:05.917Z,7.88
2023-03-26T22:23:36.050Z,3.50
2023-03-26T22:26:04.158Z,6.55
2023-03-26T22:28:31.133Z,3.47
2023-03-26T22:30:58.567Z,8.30
2023-03-26T22:33:25.183Z,5.93
2023-03-26T22:35:52.344Z,5.53
2023-03-26T22:38:19.130Z,5.50
2023-03-26T22:40:46.750Z,4.68
2023-03-26T22:43:13.146Z,4.43
2023-03-26T22:45:39.522Z,7.95
2023-03-26T22:48:06.076Z,5.72
2023-03-26T22:50:33.437Z,14.23
2023-03-26T22:52:59.938Z,5.68
2023-03-26T22:55:28.731Z,7.18
2023-03-26T22:57:56.299Z,3.38
2023-03-26T23:00:23.156Z,4.35
2023-03-26T23:02:49.930Z,4.18
2023-03-26T23:05:19.891Z,7.00
2023-03-26T23:07:47.295Z,6.20
2023-03-26T23:10:13.850Z,6.40
2023-03-26T23:12:41.377Z,17.50
2023-03-26T23:15:09.574Z,3.97
2023-03-26T23:17:37.592Z,3.90
2023-03-26T23:20:12.444Z,6.97
2023-03-26T23:22:38.810Z,4.45
2023-03-26T23:25:05.613Z,3.53
2023-03-26T23:27:32.938Z,9.27
2023-03-26T23:29:59.373Z,7.65
2023-03-26T23:32:25.796Z,5.10
2023-03-26T23:34:52.842Z,1.98
2023-03-26T23:37:23.204Z,6.78
2023-03-26T23:39:52.869Z,3.35
2023-03-26T23:42:29.582Z,3.58
2023-03-26T23:44:57.260Z,6.18
2023-03-26T23:47:24.437Z,5.35
2023-03-26T23:49:50.963Z,5.13
2023-03-26T23:52:17.558Z,14.52
2023-03-26T23:54:45.142Z,10.23
2023-03-26T23:57:11.692Z,5.53
2023-03-26T23:59:38.276Z,6.13
